createdAt,value
2019-04-11T00:00:43.790Z,12.00
2019-04-11T00:03:13.345Z,10.23
2019-04-11T00:05:43.263Z,15.50
2019-04-11T00:08:12.234Z,8.43
2019-04-11T00:10:41.658Z,13.10
2019-04-11T00:13:18.898Z,5.47
2019-04-11T00:15:41.175Z,11.90
2019-04-11T00:18:10.297Z,11.07
2019-04-11T00:20:40.205Z,7.13
2019-04-11T00:23:10.103Z,6.77
2019-04-11T00:25:39.916Z,10.27
2019-04-11T00:28:09.752Z,9.57
2019-04-11T00:30:39.911Z,9.07
2019-04-11T00:33:09.835Z,11.50
2019-04-11T00:35:39.761Z,12.97
2019-04-11T00:38:09.709Z,12.63
2019-04-11T00:40:39.546Z,13.90
2019-04-11T00:43:09.479Z,9.23
2019-04-11T00:45:38.359Z,9.63
2019-04-11T00:48:07.091Z,6.60
2019-04-11T00:50:37.089Z,5.73
2019-04-11T00:53:06.066Z,6.23
2019-04-11T00:55:35.610Z,6.60
2019-04-11T00:58:05.447Z,13.67
2019-04-11T01:00:36.635Z,10.20
2019-04-11T01:03:05.432Z,19.00
2019-04-11T01:05:37.379Z,8.13
2019-04-11T01:08:07.161Z,11.00
2019-04-11T01:10:36.221Z,12.20
2019-04-11T01:13:05.131Z,12.50
2019-04-11T01:15:34.022Z,7.47
2019-04-11T01:18:03.617Z,6.33
2019-04-11T01:20:32.537Z,12.07
2019-04-11T01:23:01.385Z,10.53
2019-04-11T01:25:30.667Z,11.20
2019-04-11T01:28:00.476Z,11.63
2019-04-11T01:30:33.345Z,8.67
2019-04-11T01:33:02.480Z,9.73
2019-04-11T01:35:31.366Z,11.97
2019-04-11T01:38:00.128Z,7.73
2019-04-11T01:40:29.836Z,9.87
2019-04-11T01:42:59.700Z,6.70
2019-04-11T01:45:29.504Z,7.23
2019-04-11T01:48:03.644Z,9.40
2019-04-11T01:50:33.044Z,11.37
2019-04-11T01:53:02.627Z,8.40
2019-04-11T01:55:32.553Z,8.90
2019-04-11T01:58:02.472Z,8.20
2019-04-11T02:00:42.025Z,11.00
2019-04-11T02:03:13.166Z,11.97
2019-04-11T02:05:43.054Z,5.57
2019-04-11T02:08:13.220Z,6.03
2019-04-11T02:10:43.276Z,9.47
2019-04-11T02:13:12.045Z,3.87
2019-04-11T02:15:40.828Z,6.20
2019-04-11T02:18:09.590Z,5.80
2019-04-11T02:20:38.988Z,8.97
2019-04-11T02:23:09.533Z,7.97
2019-04-11T02:25:58.277Z,6.13
2019-04-11T02:28:27.034Z,9.90
2019-04-11T02:30:57.037Z,13.27
2019-04-11T02:33:26.828Z,7.43
2019-04-11T02:35:56.645Z,7.97
2019-04-11T02:38:26.030Z,10.60
2019-04-11T02:40:55.758Z,7.93
2019-04-11T02:43:25.951Z,10.90
2019-04-11T02:46:08.880Z,6.47
2019-04-11T02:48:26.839Z,4.90
2019-04-11T02:50:56.484Z,6.77
2019-04-11T02:53:26.676Z,8.53
2019-04-11T02:55:58.330Z,18.37
2019-04-11T02:58:29.512Z,10.87
2019-04-11T03:01:00.960Z,7.10
2019-04-11T03:03:29.869Z,6.10
2019-04-11T03:06:01.876Z,10.70
2019-04-11T03:08:34.209Z,6.43
2019-04-11T03:11:01.846Z,6.77
2019-04-11T03:13:33.105Z,7.37
2019-04-11T03:16:19.052Z,6.63
2019-04-11T03:18:51.337Z,7.40
2019-04-11T03:21:07.275Z,11.17
2019-04-11T03:23:33.276Z,11.17
2019-04-11T03:26:03.198Z,6.47
2019-04-11T03:28:35.350Z,7.93
2019-04-11T03:31:33.304Z,5.10
2019-04-11T03:37:00.931Z,10.80
2019-04-11T03:38:54.000Z,5.77
2019-04-11T03:41:23.582Z,6.23
2019-04-11T03:43:48.598Z,7.23
2019-04-11T03:46:24.986Z,4.87
2019-04-11T03:48:51.174Z,9.50
2019-04-11T03:51:10.642Z,5.57
2019-04-11T03:53:41.053Z,6.30
2019-04-11T03:56:09.936Z,6.67
2019-04-11T03:58:39.761Z,7.93
2019-04-11T04:01:11.453Z,7.90
2019-04-11T04:03:39.738Z,6.07
2019-04-11T04:06:08.998Z,6.70
2019-04-11T04:08:39.147Z,9.40
2019-04-11T04:11:14.717Z,8.90
2019-04-11T04:14:02.136Z,11.70
2019-04-11T04:16:50.307Z,8.97
2019-04-11T04:19:31.091Z,10.37
2019-04-11T04:22:00.537Z,7.57
2019-04-11T04:24:37.777Z,13.33
2019-04-11T04:27:05.236Z,8.13
2019-04-11T04:29:37.191Z,10.70
2019-04-11T04:32:07.702Z,12.70
2019-04-11T04:34:36.717Z,8.33
2019-04-11T04:37:06.357Z,8.23
2019-04-11T04:39:36.960Z,8.33
2019-04-11T04:42:17.462Z,5.43
2019-04-11T04:44:38.020Z,7.47
2019-04-11T04:47:18.018Z,5.03
2019-04-11T04:49:38.808Z,8.17
2019-04-11T04:52:09.506Z,7.00
2019-04-11T04:54:38.628Z,9.50
2019-04-11T04:57:09.314Z,10.83
2019-04-11T04:59:40.058Z,11.50
2019-04-11T05:02:10.517Z,6.77
2019-04-11T05:04:40.311Z,7.53
2019-04-11T05:07:09.696Z,9.60
2019-04-11T05:09:40.434Z,10.10
2019-04-11T05:12:09.840Z,10.20
2019-04-11T05:14:39.331Z,13.50
2019-04-11T05:17:08.759Z,11.63
2019-04-11T05:19:38.372Z,6.90
2019-04-11T05:22:08.470Z,11.67
2019-04-11T05:24:37.363Z,6.03
2019-04-11T05:27:06.362Z,7.13
2019-04-11T05:29:35.583Z,8.93
2019-04-11T05:32:05.202Z,10.83
2019-04-11T05:34:35.119Z,6.10
2019-04-11T05:37:04.014Z,7.23
2019-04-11T05:39:33.795Z,10.90
2019-04-11T05:42:03.201Z,10.00
2019-04-11T05:44:32.630Z,8.60
2019-04-11T05:47:03.552Z,10.73
2019-04-11T05:49:37.254Z,6.67
2019-04-11T05:52:06.061Z,14.73
2019-04-11T05:54:46.445Z,11.37
2019-04-11T05:57:13.365Z,11.30
2019-04-11T05:59:45.971Z,15.07
2019-04-11T06:02:15.734Z,11.03
2019-04-11T06:04:50.139Z,10.03
2019-04-11T06:07:25.068Z,11.27
2019-04-11T06:09:56.520Z,11.00
2019-04-11T06:12:41.738Z,13.47
2019-04-11T06:15:15.694Z,9.93
2019-04-11T06:17:46.219Z,12.83
2019-04-11T06:20:19.882Z,12.73
2019-04-11T06:22:54.070Z,6.97
2019-04-11T06:25:35.230Z,9.40
2019-04-11T06:28:06.227Z,17.73
2019-04-11T06:30:45.497Z,12.37
2019-04-11T06:33:16.493Z,11.03
2019-04-11T06:35:46.865Z,9.23
2019-04-11T06:38:34.398Z,9.77
2019-04-11T06:41:10.526Z,8.60
2019-04-11T06:43:47.949Z,9.97
2019-04-11T06:46:36.531Z,15.57
2019-04-11T06:49:06.798Z,12.97
2019-04-11T06:51:40.050Z,15.03
2019-04-11T06:54:19.462Z,12.77
2019-04-11T06:56:52.301Z,10.83
2019-04-11T06:59:32.376Z,12.23
2019-04-11T07:02:08.860Z,15.33
2019-04-11T07:04:35.774Z,16.03
2019-04-11T07:07:06.545Z,15.43
2019-04-11T07:09:39.890Z,14.23
2019-04-11T07:12:26.578Z,11.80
2019-04-11T07:14:58.069Z,14.87
2019-04-11T07:17:45.826Z,12.20
2019-04-11T07:20:22.818Z,18.47
2019-04-11T07:23:09.722Z,32.77
2019-04-11T07:25:43.098Z,23.67
2019-04-11T07:28:29.505Z,23.57
2019-04-11T07:31:16.449Z,27.70
2019-04-11T07:34:04.267Z,19.83
2019-04-11T07:36:51.154Z,12.80
2019-04-11T07:39:24.607Z,15.53
2019-04-11T07:41:56.036Z,14.00
2019-04-11T07:44:30.604Z,17.60
2019-04-11T07:47:21.886Z,14.20
2019-04-11T07:49:53.447Z,12.67
2019-04-11T07:52:22.341Z,11.17
2019-04-11T07:54:51.412Z,16.37
2019-04-11T07:57:38.405Z,14.47
2019-04-11T08:00:15.194Z,16.13
2019-04-11T08:02:57.516Z,15.30
2019-04-11T08:05:34.545Z,15.33
2019-04-11T08:08:21.571Z,18.00
2019-04-11T08:11:07.797Z,17.47
2019-04-11T08:13:38.828Z,17.40
2019-04-11T08:16:14.963Z,13.57
2019-04-11T08:18:51.219Z,11.87
2019-04-11T08:21:37.251Z,15.07
2019-04-11T08:24:07.853Z,15.10
2019-04-11T08:26:55.414Z,16.70
2019-04-11T08:29:24.416Z,10.83
2019-04-11T08:32:11.756Z,12.77
2019-04-11T08:34:45.805Z,14.47
2019-04-11T08:37:32.197Z,14.03
2019-04-11T08:40:01.839Z,13.60
2019-04-11T08:42:48.934Z,15.00
2019-04-11T08:45:18.217Z,15.47
2019-04-11T08:47:54.328Z,16.90
2019-04-11T08:50:22.740Z,14.07
2019-04-11T08:52:56.099Z,20.63
2019-04-11T08:55:27.362Z,12.23
2019-04-11T08:57:58.311Z,17.40
2019-04-11T09:00:44.205Z,11.27
2019-04-11T09:03:17.714Z,14.60
2019-04-11T09:05:49.236Z,20.03
2019-04-11T09:08:36.478Z,17.50
2019-04-11T09:11:06.901Z,17.47
2019-04-11T09:13:43.986Z,14.17
2019-04-11T09:16:17.282Z,12.77
2019-04-11T09:18:46.154Z,16.13
2019-04-11T09:21:16.537Z,16.87
2019-04-11T09:23:46.053Z,15.47
2019-04-11T09:26:25.614Z,13.20
2019-04-11T09:28:53.603Z,18.90
2019-04-11T09:31:23.984Z,14.67
2019-04-11T09:34:03.733Z,16.13
2019-04-11T09:36:37.171Z,13.23
2019-04-11T09:39:19.250Z,18.60
2019-04-11T09:42:07.078Z,17.03
2019-04-11T09:44:49.868Z,16.73
2019-04-11T09:47:32.647Z,17.07
2019-04-11T09:50:06.036Z,18.47
2019-04-11T09:52:49.582Z,23.90
2019-04-11T09:55:23.322Z,14.47
2019-04-11T09:57:54.603Z,16.47
2019-04-11T10:00:38.769Z,19.83
2019-04-11T10:03:09.245Z,17.40
2019-04-11T10:05:40.678Z,27.07
2019-04-11T10:08:17.507Z,30.90
2019-04-11T10:10:51.173Z,19.27
2019-04-11T10:13:34.477Z,15.63
2019-04-11T10:16:15.879Z,18.63
2019-04-11T10:19:03.392Z,22.43
2019-04-11T10:21:34.077Z,15.97
2019-04-11T10:24:18.597Z,17.93
2019-04-11T10:27:00.903Z,18.80
2019-04-11T10:29:48.341Z,17.37
2019-04-11T10:32:27.901Z,17.90
2019-04-11T10:35:14.620Z,21.93
2019-04-11T10:37:47.618Z,18.13
2019-04-11T10:40:20.739Z,20.00
2019-04-11T10:42:50.334Z,24.83
2019-04-11T10:45:36.471Z,13.70
2019-04-11T10:48:05.578Z,22.97
2019-04-11T10:50:52.760Z,11.27
2019-04-11T10:53:22.818Z,12.50
2019-04-11T10:56:10.721Z,17.43
2019-04-11T10:58:42.505Z,21.00
2019-04-11T11:01:13.177Z,20.37
2019-04-11T11:03:53.501Z,17.80
2019-04-11T11:06:24.042Z,15.10
2019-04-11T11:09:10.874Z,17.07
2019-04-11T11:11:44.390Z,15.87
2019-04-11T11:14:14.788Z,16.40
2019-04-11T11:16:46.731Z,10.80
2019-04-11T11:19:40.899Z,17.37
2019-04-11T11:21:51.881Z,23.50
2019-04-11T11:24:39.105Z,17.07
2019-04-11T11:27:05.778Z,14.43
2019-04-11T11:29:54.510Z,16.93
2019-04-11T11:32:23.247Z,15.40
2019-04-11T11:34:54.935Z,16.73
2019-04-11T11:37:25.518Z,15.70
2019-04-11T11:40:14.607Z,16.13
2019-04-11T11:42:58.816Z,14.30
2019-04-11T11:45:41.647Z,14.60
2019-04-11T11:48:18.519Z,12.70
2019-04-11T11:50:49.131Z,13.57
2019-04-11T11:53:21.224Z,13.53
2019-04-11T11:55:51.634Z,13.90
2019-04-11T11:58:22.089Z,10.97
2019-04-11T12:00:54.491Z,12.83
2019-04-11T12:03:29.942Z,15.27
2019-04-11T12:05:59.172Z,16.80
2019-04-11T12:08:32.752Z,12.93
2019-04-11T12:11:03.985Z,14.17
2019-04-11T12:13:34.946Z,14.50
2019-04-11T12:16:10.064Z,19.33
2019-04-11T12:18:51.687Z,15.30
2019-04-11T12:21:24.841Z,15.97
2019-04-11T12:24:03.812Z,13.40
2019-04-11T12:26:30.476Z,17.37
2019-04-11T12:29:17.090Z,15.63
2019-04-11T12:31:48.095Z,15.10
2019-04-11T12:34:26.027Z,20.17
2019-04-11T12:36:56.433Z,16.13
2019-04-11T12:39:43.380Z,11.63
2019-04-11T12:42:19.775Z,16.13
2019-04-11T12:45:08.522Z,10.80
2019-04-11T12:47:39.188Z,13.43
2019-04-11T12:50:26.773Z,12.20
2019-04-11T12:52:57.194Z,16.80
2019-04-11T12:55:39.589Z,13.27
2019-04-11T12:58:09.998Z,14.83
2019-04-11T13:00:46.217Z,10.70
2019-04-11T13:03:25.518Z,12.57
2019-04-11T13:05:58.729Z,15.00
2019-04-11T13:08:45.366Z,9.13
2019-04-11T13:11:15.739Z,10.57
2019-04-11T13:13:54.711Z,11.87
2019-04-11T13:16:25.317Z,22.03
2019-04-11T13:19:01.323Z,14.17
2019-04-11T13:21:31.695Z,10.67
2019-04-11T13:24:08.173Z,13.30
2019-04-11T13:26:54.915Z,15.57
2019-04-11T13:29:25.333Z,17.33
2019-04-11T13:31:55.710Z,13.57
2019-04-11T13:34:26.095Z,17.50
2019-04-11T13:36:58.934Z,12.07
2019-04-11T13:39:28.239Z,9.70
2019-04-11T13:42:07.547Z,11.77
2019-04-11T13:44:37.303Z,18.50
2019-04-11T13:47:24.150Z,15.07
2019-04-11T13:49:54.517Z,14.33
2019-04-11T13:52:27.942Z,17.30
2019-04-11T13:54:58.320Z,17.43
2019-04-11T13:57:28.689Z,10.60
2019-04-11T14:00:02.343Z,16.10
2019-04-11T14:02:38.605Z,12.70
2019-04-11T14:05:12.277Z,17.13
2019-04-11T14:07:42.581Z,12.70
2019-04-11T14:10:12.957Z,11.90
2019-04-11T14:12:41.783Z,19.10
2019-04-11T14:15:15.351Z,11.97
2019-04-11T14:17:48.514Z,17.83
2019-04-11T14:20:29.024Z,13.93
2019-04-11T14:23:03.095Z,14.80
2019-04-11T14:25:39.837Z,18.90
2019-04-11T14:28:10.238Z,17.30
2019-04-11T14:30:52.214Z,11.90
2019-04-11T14:33:23.598Z,12.13
2019-04-11T14:35:58.489Z,13.70
2019-04-11T14:38:32.070Z,18.40
2019-04-11T14:41:13.061Z,23.50
2019-04-11T14:43:50.814Z,17.50
2019-04-11T14:46:37.722Z,14.50
2019-04-11T14:49:10.250Z,18.97
2019-04-11T14:51:43.983Z,15.07
2019-04-11T14:54:17.103Z,16.03
2019-04-11T14:56:52.147Z,11.00
2019-04-11T14:59:37.073Z,14.50
2019-04-11T15:02:24.235Z,21.27
2019-04-11T15:04:54.631Z,19.10
2019-04-11T15:07:23.449Z,17.57
2019-04-11T15:09:56.565Z,12.83
2019-04-11T15:12:26.963Z,15.50
2019-04-11T15:15:13.622Z,17.80
2019-04-11T15:17:42.563Z,26.20
2019-04-11T15:20:13.339Z,16.83
2019-04-11T15:22:43.745Z,21.53
2019-04-11T15:25:22.679Z,19.80
2019-04-11T15:27:55.817Z,17.80
2019-04-11T15:30:29.461Z,22.60
2019-04-11T15:33:05.710Z,24.23
2019-04-11T15:35:34.938Z,15.60
2019-04-11T15:38:17.331Z,16.43
2019-04-11T15:40:47.353Z,18.57
2019-04-11T15:43:32.570Z,19.10
2019-04-11T15:46:02.974Z,19.00
2019-04-11T15:48:42.250Z,20.57
2019-04-11T15:51:21.427Z,21.20
2019-04-11T15:53:51.810Z,20.40
2019-04-11T15:56:41.818Z,15.17
2019-04-11T15:59:15.132Z,17.40
2019-04-11T16:02:01.639Z,24.50
2019-04-11T16:04:32.514Z,17.70
2019-04-11T16:07:12.041Z,19.33
2019-04-11T16:09:46.812Z,27.07
2019-04-11T16:12:20.173Z,22.93
2019-04-11T16:14:50.541Z,16.03
2019-04-11T16:17:36.983Z,21.73
2019-04-11T16:20:08.494Z,18.03
2019-04-11T16:22:43.196Z,18.57
2019-04-11T16:25:16.843Z,16.73
2019-04-11T16:28:06.872Z,22.40
2019-04-11T16:30:39.531Z,20.57
2019-04-11T16:33:07.718Z,17.47
2019-04-11T16:35:38.292Z,18.77
2019-04-11T16:38:10.535Z,17.17
2019-04-11T16:40:50.910Z,17.60
2019-04-11T16:43:24.570Z,19.90
2019-04-11T16:46:08.687Z,18.87
2019-04-11T16:48:37.434Z,21.60
2019-04-11T16:51:06.185Z,15.53
2019-04-11T16:53:34.938Z,17.03
2019-04-11T16:56:03.686Z,25.23
2019-04-11T16:58:32.417Z,21.87
2019-04-11T17:01:01.187Z,17.60
2019-04-11T17:03:29.987Z,20.73
2019-04-11T17:06:03.325Z,22.23
2019-04-11T17:08:39.614Z,19.13
2019-04-11T17:11:09.978Z,19.40
2019-04-11T17:13:38.828Z,17.37
2019-04-11T17:16:09.221Z,15.07
2019-04-11T17:18:38.055Z,20.60
2019-04-11T17:21:08.532Z,16.67
2019-04-11T17:23:37.191Z,16.33
2019-04-11T17:26:06.806Z,27.70
2019-04-11T17:28:35.956Z,21.23
2019-04-11T17:31:04.883Z,20.37
2019-04-11T17:33:33.746Z,25.50
2019-04-11T17:36:03.068Z,19.90
2019-04-11T17:38:31.909Z,17.00
2019-04-11T17:41:00.645Z,14.50
2019-04-11T17:43:29.382Z,18.63
2019-04-11T17:45:58.275Z,24.67
2019-04-11T17:48:27.008Z,23.57
2019-04-11T17:50:56.038Z,20.93
2019-04-11T17:53:25.433Z,18.73
2019-04-11T17:55:54.944Z,20.67
2019-04-11T17:58:27.044Z,24.50
2019-04-11T18:01:05.124Z,16.13
2019-04-11T18:03:32.203Z,18.27
2019-04-11T18:06:00.932Z,23.60
2019-04-11T18:08:29.694Z,18.77
2019-04-11T18:10:58.422Z,19.63
2019-04-11T18:13:30.589Z,19.17
2019-04-11T18:16:00.889Z,22.13
2019-04-11T18:18:28.095Z,15.70
2019-04-11T18:20:58.514Z,22.10
2019-04-11T18:23:27.462Z,12.60
2019-04-11T18:25:56.664Z,17.83
2019-04-11T18:28:25.466Z,23.63
2019-04-11T18:30:55.865Z,24.13
2019-04-11T18:33:24.599Z,23.77
2019-04-11T18:35:53.330Z,24.57
2019-04-11T18:38:22.163Z,22.80
2019-04-11T18:40:52.487Z,21.77
2019-04-11T18:43:25.531Z,18.77
2019-04-11T18:45:54.413Z,24.50
2019-04-11T18:48:23.197Z,25.10
2019-04-11T18:50:53.192Z,19.80
2019-04-11T18:53:25.132Z,25.33
2019-04-11T18:55:53.929Z,18.17
2019-04-11T18:58:22.726Z,28.30
2019-04-11T19:00:51.514Z,20.67
2019-04-11T19:03:20.237Z,18.77
2019-04-11T19:05:48.974Z,17.40
2019-04-11T19:08:17.950Z,23.17
2019-04-11T19:10:46.809Z,17.47
2019-04-11T19:13:17.017Z,23.97
2019-04-11T19:15:46.402Z,22.60
2019-04-11T19:18:16.589Z,26.77
2019-04-11T19:20:49.857Z,17.63
2019-04-11T19:23:18.502Z,19.97
2019-04-11T19:25:47.234Z,19.07
2019-04-11T19:28:16.066Z,19.47
2019-04-11T19:30:45.617Z,18.13
2019-04-11T19:33:14.346Z,17.27
2019-04-11T19:35:43.210Z,23.20
2019-04-11T19:38:27.280Z,19.67
2019-04-11T19:40:56.094Z,22.03
2019-04-11T19:43:24.822Z,16.10
2019-04-11T19:45:54.611Z,20.97
2019-04-11T19:48:25.221Z,22.20
2019-04-11T19:50:53.801Z,13.90
2019-04-11T19:53:22.623Z,17.37
2019-04-11T19:56:02.988Z,18.40
2019-04-11T19:58:32.501Z,19.27
2019-04-11T20:01:01.304Z,16.07
2019-04-11T20:03:31.794Z,13.00
2019-04-11T20:06:00.590Z,16.47
2019-04-11T20:08:29.334Z,17.77
2019-04-11T20:11:00.995Z,17.03
2019-04-11T20:13:32.013Z,12.53
2019-04-11T20:15:58.883Z,18.23
2019-04-11T20:18:27.614Z,10.47
2019-04-11T20:20:56.361Z,16.50
2019-04-11T20:23:25.095Z,15.13
2019-04-11T20:25:53.835Z,14.87
2019-04-11T20:28:22.589Z,8.50
2019-04-11T20:30:51.323Z,13.13
2019-04-11T20:33:26.913Z,16.00
2019-04-11T20:35:50.693Z,15.83
2019-04-11T20:38:19.491Z,14.07
2019-04-11T20:40:52.101Z,14.37
2019-04-11T20:43:18.769Z,18.07
2019-04-11T20:45:48.749Z,15.20
2019-04-11T20:48:17.527Z,22.37
2019-04-11T20:50:46.313Z,10.47
2019-04-11T20:53:15.131Z,11.00
2019-04-11T20:55:43.926Z,23.77
2019-04-11T20:58:12.797Z,13.60
2019-04-11T21:00:50.370Z,15.37
2019-04-11T21:03:12.015Z,14.60
2019-04-11T21:05:40.934Z,13.13
2019-04-11T21:08:09.651Z,15.80
2019-04-11T21:10:38.382Z,17.90
2019-04-11T21:13:07.824Z,16.60
2019-04-11T21:15:36.618Z,17.77
2019-04-11T21:18:05.357Z,17.33
2019-04-11T21:20:34.161Z,22.27
2019-04-11T21:23:02.926Z,16.93
2019-04-11T21:25:31.850Z,11.33
2019-04-11T21:28:00.613Z,17.50
2019-04-11T21:30:30.431Z,20.77
2019-04-11T21:33:01.118Z,25.20
2019-04-11T21:35:31.001Z,17.20
2019-04-11T21:38:00.960Z,14.87
2019-04-11T21:40:29.842Z,17.33
2019-04-11T21:42:58.653Z,23.77
2019-04-11T21:45:27.508Z,11.73
2019-04-11T21:47:56.231Z,15.17
2019-04-11T21:50:24.954Z,22.13
2019-04-11T21:52:53.733Z,17.13
2019-04-11T21:55:22.465Z,13.90
2019-04-11T21:57:51.218Z,17.67
2019-04-11T22:00:27.470Z,18.20
2019-04-11T22:02:56.413Z,19.17
2019-04-11T22:05:28.946Z,16.33
2019-04-11T22:07:55.537Z,15.97
2019-04-11T22:10:24.294Z,19.20
2019-04-11T22:12:53.025Z,18.93
2019-04-11T22:15:21.822Z,16.30
2019-04-11T22:17:50.586Z,15.90
2019-04-11T22:20:19.315Z,19.87
2019-04-11T22:22:48.045Z,13.03
2019-04-11T22:25:16.814Z,23.80
2019-04-11T22:27:45.559Z,16.07
2019-04-11T22:30:16.057Z,14.17
2019-04-11T22:32:46.453Z,10.80
2019-04-11T22:35:15.181Z,13.07
2019-04-11T22:37:43.973Z,13.93
2019-04-11T22:40:12.807Z,18.77
2019-04-11T22:42:41.993Z,17.93
2019-04-11T22:45:10.798Z,15.63
2019-04-11T22:47:39.635Z,18.80
2019-04-11T22:50:10.090Z,15.00
2019-04-11T22:52:39.868Z,16.63
2019-04-11T22:55:11.319Z,29.87
2019-04-11T22:57:40.867Z,12.27
2019-04-11T23:00:14.775Z,21.17
2019-04-11T23:02:44.950Z,11.30
2019-04-11T23:05:14.970Z,18.73
2019-04-11T23:07:45.930Z,17.63
2019-04-11T23:10:14.151Z,17.33
2019-04-11T23:12:45.756Z,13.80
2019-04-11T23:15:15.103Z,13.57
2019-04-11T23:17:44.619Z,17.57
2019-04-11T23:20:14.378Z,13.03
2019-04-11T23:22:43.770Z,13.03
2019-04-11T23:25:12.521Z,13.93
2019-04-11T23:27:41.237Z,9.50
2019-04-11T23:30:11.140Z,15.80
2019-04-11T23:32:39.886Z,9.43
2019-04-11T23:35:08.805Z,8.43
2019-04-11T23:37:51.232Z,13.47
2019-04-11T23:40:21.863Z,12.77
2019-04-11T23:42:51.082Z,9.13
2019-04-11T23:45:21.519Z,15.80
2019-04-11T23:47:53.248Z,13.87
2019-04-11T23:50:24.845Z,11.83
2019-04-11T23:52:51.057Z,8.57
2019-04-11T23:55:19.792Z,10.10
2019-04-11T23:57:48.510Z,10.33
